M I D A S
Marine Information and Data Acquisition System
Tripno 1934 of the Zeeleeuw from 2010-08-10 06:22:44 to 2010-08-10 14:52:31
Back to CruiseResearch ActivitiesStationsMapUnderway DataData graphs

EquipmentUnitsComment
TimeDGPSUTC
LatitudeDGPSDM.mWGS84
LongitudeDGPSDM.mWGS84
HeadingGyrodeg 
SOGDGPSknotsSpeed over ground
COGDGPSdegCourse over ground
DepthEcho soundermeters200 kHz
Missing or incorrect values are displayed as -999
Navigation data collected by the RV Zeeleeuw from 2010-08-10 06:19:19 to 2010-08-10 14:59:33
Time Latitude Longitude Heading SOG COG Depth
2010-08-10 06:20:25 51°13.684 2°55.891 117.5 4.2 298 -999
2010-08-10 06:21:25 51°13.696 2°55.788 90.6 3.9 272 -999
2010-08-10 06:22:24 51°13.7 2°55.747 54.8 0.5 24 11.1
2010-08-10 06:23:25 51°13.691 2°55.733 28.5 0.3 2 -999
2010-08-10 06:24:24 51°13.735 2°55.711 336.1 5.8 335 11.1
2010-08-10 06:25:23 51°13.863 2°55.612 336.5 9.9 335 9.8
2010-08-10 06:26:21 51°14.018 2°55.507 338.8 10.6 337 9.6
2010-08-10 06:28:22 51°14.348 2°55.228 331.3 11.2 327 9.2
2010-08-10 06:31:22 51°14.583 2°54.479 244 13.3 241 8.3
2010-08-10 06:32:22 51°14.468 2°54.162 241.4 14 240 7.9
2010-08-10 06:33:22 51°14.35 2°53.839 240.7 14.2 240 7.8
2010-08-10 06:34:21 51°14.231 2°53.516 241 14.4 239 8.1
2010-08-10 06:35:22 51°14.104 2°53.182 240.3 14.6 239 8.5
2010-08-10 06:36:22 51°13.979 2°52.85 239.7 14.6 239 8.7
2010-08-10 06:37:21 51°13.855 2°52.524 240.3 14.6 239 8.9
2010-08-10 06:38:22 51°13.726 2°52.187 239.1 14.6 239 8.8
2010-08-10 06:39:22 51°13.599 2°51.855 239.3 14.7 239 8.9
2010-08-10 06:40:22 51°13.473 2°51.521 239.8 14.7 239 9.1
2010-08-10 06:41:21 51°13.35 2°51.191 240.1 14.7 239 9.2
2010-08-10 06:42:22 51°13.223 2°50.851 240.4 14.7 239 9.3
2010-08-10 06:43:22 51°13.098 2°50.516 240.8 14.7 240 9.4
2010-08-10 06:44:22 51°12.974 2°50.179 240.3 14.7 239 9.7
2010-08-10 06:45:21 51°12.851 2°49.846 239.6 14.9 239 9.8
2010-08-10 06:46:22 51°12.724 2°49.501 240.9 14.8 240 9.9
2010-08-10 06:47:22 51°12.599 2°49.165 239.7 14.6 239 10.1
2010-08-10 06:48:22 51°12.476 2°48.833 240 14.5 239 10.1
2010-08-10 06:49:22 51°12.352 2°48.501 240 14.6 240 10.2
2010-08-10 06:50:21 51°12.232 2°48.173 240.5 14.6 240 10.2
2010-08-10 06:51:22 51°12.108 2°47.835 240.2 14.4 239 10.1
2010-08-10 06:52:22 51°11.987 2°47.508 240.5 14.3 240 10.1
2010-08-10 06:53:21 51°11.87 2°47.187 240.3 14.2 240 9.9
2010-08-10 06:54:22 51°11.749 2°46.857 240.4 14.2 240 9.6
2010-08-10 06:55:21 51°11.632 2°46.538 240.3 14.2 240 9.5
2010-08-10 06:56:22 51°11.514 2°46.207 240.8 14.1 240 9.3
2010-08-10 06:57:21 51°11.397 2°45.89 239.8 14.1 240 8.9
2010-08-10 06:58:22 51°11.278 2°45.559 241 14.1 240 8.4
2010-08-10 06:59:22 51°11.16 2°45.236 240.7 14.1 241 8.2
2010-08-10 07:00:21 51°11.046 2°44.917 241 14.1 241 7.9
2010-08-10 07:01:22 51°10.929 2°44.588 241 13.9 241 7.6
2010-08-10 07:02:22 51°10.811 2°44.273 235.8 13.8 233 7.4
2010-08-10 07:03:22 51°10.657 2°44.009 223.6 13.5 224 6.9
2010-08-10 07:04:22 51°10.509 2°43.742 231.6 13.5 232 6.9
2010-08-10 07:05:21 51°10.368 2°43.469 229.8 13.6 230 7.1
2010-08-10 07:06:22 51°10.228 2°43.196 229.4 11.7 229 7.5
2010-08-10 07:07:21 51°10.132 2°43.03 236.4 6.5 243 7.7
2010-08-10 07:08:22 51°10.117 2°42.902 275.1 3.7 268 7.9
2010-08-10 07:09:22 51°10.12 2°42.843 308.7 1.2 270 7.8
2010-08-10 07:10:21 51°10.117 2°42.824 322.8 0.7 255 7.8
2010-08-10 07:11:22 51°10.114 2°42.806 328.3 0.6 265 7.7
2010-08-10 07:12:23 51°10.114 2°42.789 327.7 0.7 271 -999
2010-08-10 07:13:22 51°10.114 2°42.772 320.3 0.7 268 7.8
2010-08-10 07:14:23 51°10.114 2°42.752 311.1 0.8 263 7.8
2010-08-10 07:15:23 51°10.113 2°42.732 302.2 0.7 263 7.8
2010-08-10 07:16:22 51°10.111 2°42.713 294.8 0.7 262 7.8
2010-08-10 07:17:22 51°10.109 2°42.695 289 0.7 261 7.7
2010-08-10 07:18:21 51°10.107 2°42.677 285.5 0.7 263 7.7
2010-08-10 07:19:22 51°10.107 2°42.655 286.8 1.7 277 7.8
2010-08-10 07:20:22 51°10.138 2°42.585 330.3 4.9 320 7.6
2010-08-10 07:21:22 51°10.235 2°42.488 339.8 8.2 333 7.5
2010-08-10 07:22:22 51°10.372 2°42.419 356.8 8.8 350 7.8
2010-08-10 07:23:22 51°10.516 2°42.352 349.9 9.1 343 8.9
2010-08-10 07:24:22 51°10.663 2°42.293 352.8 9.1 344 10.4
2010-08-10 07:25:21 51°10.807 2°42.24 1.4 8.9 353 11.1
2010-08-10 07:26:22 51°10.957 2°42.203 357.2 9 348 11.6
2010-08-10 07:27:21 51°11.103 2°42.148 353.1 9.2 346 11.2
2010-08-10 07:28:22 51°11.214 2°42.043 305.8 6 294 11
2010-08-10 07:29:22 51°11.206 2°41.916 238.2 4.3 238 11
2010-08-10 07:30:21 51°11.157 2°41.858 180.5 3.7 189 10.9
2010-08-10 07:33:17 51°10.944 2°41.817 191.4 5.1 204 11.6
2010-08-10 07:34:17 51°10.873 2°41.758 193.6 4.2 208 11.5
2010-08-10 07:35:17 51°10.817 2°41.711 197.3 3.6 212 11.7
2010-08-10 07:36:17 51°10.772 2°41.649 216.7 3.5 228 11.6
2010-08-10 07:37:17 51°10.74 2°41.572 236.3 3.6 242 11.6
2010-08-10 07:38:17 51°10.714 2°41.489 235.2 3.4 243 11.5
2010-08-10 07:39:17 51°10.686 2°41.408 230.9 3.6 240 11.6
2010-08-10 07:40:17 51°10.655 2°41.326 231.2 3.6 240 11.4
2010-08-10 07:41:17 51°10.624 2°41.243 230.3 3.7 239 11.5
2010-08-10 07:42:17 51°10.593 2°41.161 230.6 3.6 239 11.4
2010-08-10 07:43:17 51°10.562 2°41.079 229.6 3.6 238 11.3
2010-08-10 07:44:17 51°10.53 2°40.997 229.5 3.6 238 11.5
2010-08-10 07:45:17 51°10.498 2°40.915 229.8 3.6 239 11.5
2010-08-10 07:46:17 51°10.467 2°40.835 229.1 3.5 238 11.5
2010-08-10 07:47:17 51°10.436 2°40.756 229.6 3.5 239 11.4
2010-08-10 07:48:17 51°10.405 2°40.677 228.8 3.5 238 11.5
2010-08-10 07:49:17 51°10.375 2°40.599 229.3 3.5 239 11.4
2010-08-10 07:50:17 51°10.344 2°40.522 228.2 3.4 237 11.5
2010-08-10 07:51:17 51°10.314 2°40.445 229.4 3.5 238 11.3
2010-08-10 07:52:17 51°10.283 2°40.367 228.2 3.5 237 11.3
2010-08-10 07:53:17 51°10.25 2°40.292 227.6 3.4 236 11.3
2010-08-10 07:54:17 51°10.22 2°40.216 230.5 3.4 239 11.3
2010-08-10 07:55:17 51°10.19 2°40.141 230 3.4 238 11.2
2010-08-10 07:56:17 51°10.16 2°40.065 229.5 3.4 238 11.1
2010-08-10 07:57:17 51°10.131 2°39.991 229.3 3.3 238 11.1
2010-08-10 07:58:17 51°10.101 2°39.917 229.7 3.4 238 10.9
2010-08-10 07:59:17 51°10.071 2°39.841 229.3 3.4 238 10.8
2010-08-10 08:00:17 51°10.04 2°39.771 219.6 3.1 232 10.8
2010-08-10 08:01:17 51°9.993 2°39.714 192.6 4 205 10.7
2010-08-10 08:02:17 51°9.932 2°39.667 197.3 3.8 211 10.2
2010-08-10 08:03:17 51°9.885 2°39.61 213.1 3.4 224 10.1
2010-08-10 08:04:17 51°9.848 2°39.547 219.9 3.4 229 10.2
2010-08-10 08:05:17 51°9.817 2°39.469 238.8 3.6 245 10
2010-08-10 08:06:17 51°9.798 2°39.371 262 4.1 263 10
2010-08-10 08:07:17 51°9.806 2°39.258 296.2 4.6 289 10.4
2010-08-10 08:08:17 51°9.845 2°39.159 325.2 3.8 309 10.7
2010-08-10 08:09:17 51°9.881 2°39.104 337.7 2.5 321 11.1
2010-08-10 08:10:17 51°9.907 2°39.059 328.8 2.1 306 11.6
2010-08-10 08:11:17 51°9.921 2°39.015 315.1 1.8 292 12
2010-08-10 08:12:17 51°9.932 2°38.967 305.6 3.5 294 12.2
2010-08-10 08:13:17 51°10.007 2°38.902 13.1 6.1 6 13.1
2010-08-10 08:14:17 51°10.087 2°38.992 60.3 4.7 59 13.7
2010-08-10 08:15:17 51°10.097 2°39.069 90.1 2.1 96 13.5
2010-08-10 08:16:17 51°10.087 2°39.108 102.8 1.2 124 13.4
2010-08-10 08:17:17 51°10.074 2°39.132 109.9 1.9 125 13
2010-08-10 08:18:17 51°10.001 2°39.201 160.1 7.4 172 12.2
2010-08-10 08:19:17 51°9.89 2°39.092 239.3 8.3 244 11.3
2010-08-10 08:20:17 51°9.877 2°38.94 280.2 4.6 275 11.8
2010-08-10 08:21:17 51°9.891 2°38.843 300.7 3.2 288 12.3
2010-08-10 08:22:17 51°9.904 2°38.771 295.2 2.5 281 12.7
2010-08-10 08:23:17 51°9.908 2°38.712 285.3 2.1 271 12.9
2010-08-10 08:24:17 51°9.907 2°38.661 275.9 1.8 266 13
2010-08-10 08:25:17 51°9.905 2°38.619 269.8 1.5 266 13.2
2010-08-10 08:26:17 51°9.903 2°38.584 267.7 1.3 267 13.4
2010-08-10 08:27:17 51°9.902 2°38.552 270.3 1.1 267 13.5
2010-08-10 08:28:17 51°9.901 2°38.522 273.1 1.1 272 13.6
2010-08-10 08:29:17 51°9.901 2°38.496 279.8 1 272 13.6
2010-08-10 08:30:17 51°9.902 2°38.472 288.2 0.8 270 13.8
2010-08-10 08:31:17 51°9.901 2°38.452 296.9 0.8 268 14
2010-08-10 08:32:17 51°9.9 2°38.432 303.1 0.7 265 14
2010-08-10 08:33:17 51°9.9 2°38.412 310.4 1.3 287 14.2
2010-08-10 08:34:46 51°9.949 2°38.373 29.6 3 19 14.6
2010-08-10 08:36:53 51°9.996 2°38.678 78.9 10.1 79 14.1
2010-08-10 08:37:53 51°10.045 2°38.964 74.1 12 74 13.5
2010-08-10 08:38:53 51°10.109 2°39.264 67.1 12 63 13.1
2010-08-10 08:39:53 51°10.204 2°39.545 62.5 12.2 57 12.9
2010-08-10 08:40:53 51°10.301 2°39.826 62.7 12.1 61 12.8
2010-08-10 08:41:53 51°10.386 2°40.115 68.3 12 68 12.6
2010-08-10 08:42:53 51°10.459 2°40.413 69.7 12.2 69 12.3
2010-08-10 08:43:53 51°10.533 2°40.712 69.1 12.2 68 12.1
2010-08-10 08:44:53 51°10.606 2°41.01 69 12 69 11.9
2010-08-10 08:45:53 51°10.679 2°41.308 69.1 12.2 67 12.1
2010-08-10 08:46:53 51°10.753 2°41.606 69.2 12.1 68 12
2010-08-10 08:47:53 51°10.826 2°41.904 69 12 67 12.1
2010-08-10 08:48:53 51°10.899 2°42.201 69 12 68 12.1
2010-08-10 08:49:53 51°10.971 2°42.497 69.8 11.9 69 12.1
2010-08-10 08:50:53 51°11.044 2°42.791 69 11.9 67 12.1
2010-08-10 08:51:53 51°11.118 2°43.083 69.8 11.9 69 12.2
2010-08-10 08:52:53 51°11.191 2°43.374 69.4 11.9 68 12.3
2010-08-10 08:53:53 51°11.262 2°43.668 71.9 11.9 69 12.2
2010-08-10 08:54:53 51°11.324 2°43.967 73.5 12 72 12.2
2010-08-10 08:55:53 51°11.386 2°44.268 72.1 11.9 71 12.3
2010-08-10 08:56:53 51°11.449 2°44.568 72.7 11.9 71 12.2
2010-08-10 08:57:53 51°11.512 2°44.867 72.9 11.8 72 12.3
2010-08-10 08:58:53 51°11.582 2°45.161 70.1 12 69 12.3
2010-08-10 08:59:53 51°11.653 2°45.455 69.9 12 70 12.5
2010-08-10 09:00:53 51°11.724 2°45.749 70.7 11.8 67 12.5
2010-08-10 09:01:53 51°11.8 2°46.039 67.6 11.8 65 12.5
2010-08-10 09:02:53 51°11.879 2°46.327 68.9 11.9 68 12.5
2010-08-10 09:03:53 51°11.955 2°46.615 68.7 11.8 69 12.5
2010-08-10 09:04:53 51°12.033 2°46.902 67.6 11.8 66 12.5
2010-08-10 09:05:53 51°12.11 2°47.191 68.7 11.8 68 12.5
2010-08-10 09:06:53 51°12.187 2°47.478 67.8 11.9 66 12.4
2010-08-10 09:07:53 51°12.273 2°47.761 65.6 11.9 65 12.3
2010-08-10 09:08:53 51°12.359 2°48.044 65.9 11.9 63 12.3
2010-08-10 09:09:53 51°12.443 2°48.329 66.2 11.9 65 12.1
2010-08-10 09:10:53 51°12.526 2°48.616 66.9 11.9 66 12
2010-08-10 09:11:53 51°12.61 2°48.902 66.2 11.9 64 11.9
2010-08-10 09:12:53 51°12.693 2°49.19 66.7 11.9 66 11.7
2010-08-10 09:13:53 51°12.777 2°49.478 66.5 11.9 65 11.6
2010-08-10 09:14:53 51°12.86 2°49.765 66.2 11.8 67 11.4
2010-08-10 09:15:53 51°12.943 2°50.05 66.3 11.7 65 11.2
2010-08-10 09:16:53 51°13.026 2°50.336 65.3 11.8 62 11.1
2010-08-10 09:17:53 51°13.134 2°50.597 57.2 11.1 55 11
2010-08-10 09:18:53 51°13.217 2°50.792 58.1 8 56 11
2010-08-10 09:19:53 51°13.282 2°50.953 59.6 6 58 11.1
2010-08-10 09:20:53 51°13.317 2°51.06 69.7 3.7 69 11
2010-08-10 09:21:53 51°13.314 2°51.142 104.6 3.3 113 11.1
2010-08-10 09:22:53 51°13.278 2°51.221 121.9 3.9 131 10.9
2010-08-10 09:23:53 51°13.228 2°51.286 139.3 3.9 149 10.5
2010-08-10 09:24:53 51°13.17 2°51.322 157.4 3.5 168 10.3
2010-08-10 09:25:53 51°13.114 2°51.326 173.1 3.3 183 10
2010-08-10 09:26:53 51°13.06 2°51.316 183.9 3.2 191 10
2010-08-10 09:27:53 51°13.009 2°51.294 190.2 3.2 197 9.6
2010-08-10 09:28:53 51°12.959 2°51.264 199.2 3.2 206 9.8
2010-08-10 09:29:53 51°12.912 2°51.219 207.6 3.3 213 9.6
2010-08-10 09:30:53 51°12.868 2°51.161 222.4 3.6 226 9.7
2010-08-10 09:31:53 51°12.833 2°51.087 233.9 3.4 236 9.8
2010-08-10 09:32:53 51°12.8 2°51.013 228.6 3.5 232 9.6
2010-08-10 09:33:53 51°12.765 2°50.94 230.9 3.5 234 9.7
2010-08-10 09:34:53 51°12.731 2°50.863 231.9 3.5 235 9.7
2010-08-10 09:35:53 51°12.697 2°50.787 230.4 3.6 234 9.7
2010-08-10 09:37:27 51°12.644 2°50.667 232.8 3.6 236 9.8
2010-08-10 09:38:46 51°12.602 2°50.564 232.6 3.4 237 9.7
2010-08-10 09:39:45 51°12.571 2°50.493 232.1 3.4 236 9.6
2010-08-10 09:40:46 51°12.539 2°50.415 234.3 3.4 238 9.6
2010-08-10 09:41:46 51°12.508 2°50.337 233.6 3.5 237 9.6
2010-08-10 09:42:46 51°12.481 2°50.258 240.3 3.4 244 9.7
2010-08-10 09:43:45 51°12.456 2°50.18 239.2 3.4 243 9.7
2010-08-10 09:44:46 51°12.429 2°50.099 238.9 3.5 241 9.6
2010-08-10 09:45:46 51°12.401 2°50.017 240.4 3.5 243 9.5
2010-08-10 09:46:45 51°12.376 2°49.939 236.2 3.3 241 9.6
2010-08-10 09:47:46 51°12.346 2°49.868 227.7 3.2 231 9.7
2010-08-10 09:48:46 51°12.314 2°49.799 231.3 3.2 236 9.7
2010-08-10 09:49:46 51°12.287 2°49.731 233.8 2.9 239 9.6
2010-08-10 09:50:46 51°12.263 2°49.672 228.7 2.5 235 9.7
2010-08-10 09:51:46 51°12.237 2°49.617 228.4 2.6 234 9.5
2010-08-10 09:52:45 51°12.212 2°49.562 228.3 2.7 236 9.7
2010-08-10 09:53:46 51°12.181 2°49.498 227.3 3.2 230 9.8
2010-08-10 09:54:45 51°12.148 2°49.433 228.7 3 232 9.7
2010-08-10 09:55:46 51°12.117 2°49.372 228.7 2.8 231 9.8
2010-08-10 09:56:46 51°12.088 2°49.312 229.8 2.8 233 9.8
2010-08-10 09:57:46 51°12.061 2°49.252 233.8 2.8 236 9.8
2010-08-10 09:58:46 51°12.034 2°49.188 232.9 2.9 234 9.7
2010-08-10 09:59:46 51°12.007 2°49.124 238.9 2.9 242 9.7
2010-08-10 10:00:46 51°11.995 2°49.051 260.7 2.8 266 9.9
2010-08-10 10:01:46 51°11.996 2°48.976 274.2 2.9 279 9.8
2010-08-10 10:02:46 51°12.015 2°48.902 296.8 3.1 301 9.8
2010-08-10 10:03:46 51°12.048 2°48.839 316.6 3 321 9.9
2010-08-10 10:04:46 51°12.08 2°48.807 326 1.8 334 10.2
2010-08-10 10:05:46 51°12.108 2°48.793 346.2 1.9 354 10.4
2010-08-10 10:06:46 51°12.141 2°48.793 3.5 2.1 5 10.6
2010-08-10 10:07:46 51°12.176 2°48.811 29 2.2 32 10.9
2010-08-10 10:08:46 51°12.205 2°48.851 50.6 3 48 11
2010-08-10 10:09:46 51°12.257 2°48.941 46.5 5.6 44 11
2010-08-10 10:10:46 51°12.342 2°49.02 20.8 6.2 19 11.2
2010-08-10 10:11:46 51°12.456 2°49.063 10.3 7.7 10 12.2
2010-08-10 10:12:46 51°12.574 2°49.171 47.1 9 46 12.9
2010-08-10 10:13:46 51°12.693 2°49.339 39.8 9.9 40 12.9
2010-08-10 10:14:46 51°12.746 2°49.497 86.3 4.5 81 13
2010-08-10 10:15:46 51°12.748 2°49.582 103.9 2.5 91 12.9
2010-08-10 10:16:46 51°12.748 2°49.635 114.4 1.7 90 12.8
2010-08-10 10:17:46 51°12.749 2°49.674 117.6 1.3 83 12.9
2010-08-10 10:18:46 51°12.752 2°49.705 121.6 1.1 77 12.8
2010-08-10 10:19:45 51°12.751 2°49.737 138.7 1.9 114 12.7
2010-08-10 10:20:46 51°12.675 2°49.804 166.1 7.9 163 12.1
2010-08-10 10:21:45 51°12.532 2°49.821 185.7 9.2 187 11
2010-08-10 10:22:46 51°12.383 2°49.738 209.1 9.6 211 10.4
2010-08-10 10:23:46 51°12.285 2°49.585 238.7 5.7 242 10.6
2010-08-10 10:24:46 51°12.279 2°49.482 272.3 3.1 284 10.7
2010-08-10 10:25:46 51°12.299 2°49.421 286.4 2.5 305 10.8
2010-08-10 10:26:46 51°12.346 2°49.372 338.8 4.6 353 11.1
2010-08-10 10:27:46 51°12.44 2°49.446 37.3 9.6 39 11.6
2010-08-10 10:28:46 51°12.568 2°49.677 52.7 12.4 50 11.6
2010-08-10 10:29:46 51°12.695 2°49.94 51 12.6 49 12
2010-08-10 10:30:46 51°12.818 2°50.212 59 12.6 59 12.2
2010-08-10 10:31:46 51°12.927 2°50.498 61 12.7 58 12.1
2010-08-10 10:32:46 51°13.038 2°50.784 59.4 12.7 60 12.1
2010-08-10 10:33:46 51°13.15 2°51.069 59.3 12.7 60 12.1
2010-08-10 10:34:46 51°13.239 2°51.303 62.3 7.9 62 12.3
2010-08-10 10:35:46 51°13.297 2°51.448 50.4 5.6 48 12.3
2010-08-10 10:36:46 51°13.363 2°51.509 3.8 4 12 12.6
2010-08-10 10:37:45 51°13.422 2°51.481 308 4.2 325 12.7
2010-08-10 10:39:05 51°13.488 2°51.452 332.7 1.5 39 12.9
2010-08-10 10:41:17 51°13.52 2°51.532 352.4 1.8 49 13.1
2010-08-10 10:42:17 51°13.54 2°51.568 346.8 1.8 48 -999
2010-08-10 10:43:17 51°13.562 2°51.603 334.4 1.9 44 12.9
2010-08-10 10:44:15 51°13.583 2°51.636 323.1 1.9 44 13
2010-08-10 10:45:13 51°13.605 2°51.67 313.6 1.9 46 13
2010-08-10 10:46:13 51°13.627 2°51.714 311.9 2.2 57 13.1
2010-08-10 10:47:13 51°13.642 2°51.769 327.5 2.4 84 13.2
2010-08-10 10:48:17 51°13.643 2°51.826 8 2.9 41 13.1
2010-08-10 10:49:15 51°13.693 2°51.935 66.1 7.7 62 13.1
2010-08-10 10:50:13 51°13.783 2°52.16 55.7 12 54 13
2010-08-10 10:51:13 51°13.904 2°52.426 56.5 12 55 12.9
2010-08-10 10:52:13 51°14.015 2°52.679 58.5 11.5 56 12.9
2010-08-10 10:53:13 51°14.118 2°52.933 58.9 11.4 58 12.9
2010-08-10 10:54:13 51°14.222 2°53.187 59 11.5 57 12.7
2010-08-10 10:55:13 51°14.327 2°53.44 59.2 11.5 58 12.4
2010-08-10 10:56:13 51°14.432 2°53.695 57.4 11.8 54 12.1
2010-08-10 10:57:13 51°14.567 2°53.992 53.8 14.7 53 12.4
2010-08-10 10:58:13 51°14.718 2°54.305 54 14.8 53 12.2
2010-08-10 10:59:13 51°14.879 2°54.606 48.1 14.9 49 13.6
2010-08-10 11:00:13 51°15.05 2°54.894 42.6 14.9 38 11.2
2010-08-10 11:01:13 51°15.261 2°55.104 26.2 14.8 27 10.6
2010-08-10 11:02:13 51°15.454 2°55.348 43.1 14.9 48 10.6
2010-08-10 11:03:13 51°15.612 2°55.655 54 15 52 10.7
2010-08-10 11:04:13 51°15.756 2°55.981 55.4 15.2 51 11
2010-08-10 11:05:13 51°15.9 2°56.31 55.7 15.2 51 11.1
2010-08-10 11:06:13 51°16.044 2°56.637 54 15.1 59 11
2010-08-10 11:07:13 51°16.19 2°56.96 53.6 15.1 57 11.2
2010-08-10 11:08:13 51°16.336 2°57.289 55.7 15.3 56 11.4
2010-08-10 11:09:13 51°16.485 2°57.616 53.2 15.1 53 11.4
2010-08-10 11:10:13 51°16.63 2°57.943 53.8 15.1 53 12
2010-08-10 11:11:13 51°16.778 2°58.27 54.3 15.2 53 11.7
2010-08-10 11:12:13 51°16.928 2°58.599 54.1 15.3 54 12
2010-08-10 11:13:13 51°17.076 2°58.927 54.7 15.2 55 11.9
2010-08-10 11:14:13 51°17.225 2°59.256 55.4 15.4 54 12
2010-08-10 11:15:13 51°17.375 2°59.586 53.7 15.3 54 12.1
2010-08-10 11:16:13 51°17.525 2°59.915 54.1 15.3 56 11.9
2010-08-10 11:17:13 51°17.676 3°0.244 54.6 15.3 52 11.7
2010-08-10 11:18:13 51°17.827 3°0.578 54.4 15.4 56 11.4
2010-08-10 11:19:13 51°17.977 3°0.909 55.3 15.3 55 11.1
2010-08-10 11:20:13 51°18.129 3°1.24 53.8 15.5 52 11.1
2010-08-10 11:21:13 51°18.282 3°1.572 53.8 15.4 51 10.9
2010-08-10 11:22:13 51°18.434 3°1.898 54.4 15.3 47 10.6
2010-08-10 11:23:13 51°18.581 3°2.224 54.6 15.1 53 10.5
2010-08-10 11:24:13 51°18.729 3°2.549 53.4 15.2 51 10.4
2010-08-10 11:25:13 51°18.879 3°2.879 54.4 15.4 52 10.4
2010-08-10 11:26:13 51°19.03 3°3.213 53.5 15.3 55 10.6
2010-08-10 11:27:13 51°19.18 3°3.549 53.7 15.6 56 10.9
2010-08-10 11:28:13 51°19.331 3°3.883 53.4 15.4 53 11
2010-08-10 11:29:13 51°19.482 3°4.209 54.9 15.2 53 10.9
2010-08-10 11:30:13 51°19.627 3°4.536 55.2 15.2 55 10.4
2010-08-10 11:31:13 51°19.776 3°4.863 56 15.2 54 10.6
2010-08-10 11:32:13 51°19.928 3°5.193 53.4 15.5 52 10.5
2010-08-10 11:33:13 51°20.081 3°5.527 54.5 15.4 54 10.6
2010-08-10 11:34:13 51°20.231 3°5.86 53.9 15.6 51 10.4
2010-08-10 11:35:13 51°20.384 3°6.197 53.6 15.7 53 10.3
2010-08-10 11:36:13 51°20.537 3°6.536 54.4 15.6 57 10.1
2010-08-10 11:37:13 51°20.688 3°6.87 55.2 15.5 56 10.1
2010-08-10 11:38:13 51°20.841 3°7.202 52.8 15.6 54 10.5
2010-08-10 11:39:13 51°20.997 3°7.534 54.2 15.7 52 10.6
2010-08-10 11:40:13 51°21.153 3°7.868 53.6 15.6 55 10.6
2010-08-10 11:41:13 51°21.308 3°8.2 53.5 15.8 50 11.3
2010-08-10 11:45:33 51°21.984 3°9.652 52.7 15.7 51 15.5
2010-08-10 11:46:33 51°22.137 3°9.996 53.9 16 56 16.5
2010-08-10 11:47:33 51°22.29 3°10.345 54.8 15.8 55 17.4
2010-08-10 11:48:33 51°22.417 3°10.672 64 11.8 67 19.2
2010-08-10 11:49:33 51°22.441 3°10.893 108.2 6.6 87 18.4
2010-08-10 11:50:34 51°22.431 3°11.039 138 4.3 89 18.3
2010-08-10 11:51:34 51°22.451 3°11.123 127.9 3.1 48 -999
2010-08-10 11:52:37 51°22.485 3°11.162 100.2 1.9 22 -999
2010-08-10 11:53:37 51°22.5 3°11.15 76.3 1.2 269 -999
2010-08-10 11:54:37 51°22.503 3°11.164 53.1 2.8 68 18.1
2010-08-10 11:55:37 51°22.528 3°11.249 14.8 3.4 66 18.3
2010-08-10 11:56:36 51°22.552 3°11.331 1.2 3.5 64 18.2
2010-08-10 11:57:34 51°22.578 3°11.412 344.4 3.5 65 17.4
2010-08-10 11:58:33 51°22.602 3°11.491 330.5 3.3 65 17.8
2010-08-10 11:59:33 51°22.624 3°11.571 315 3.2 69 17.6
2010-08-10 12:00:33 51°22.643 3°11.652 304.6 3.3 69 17.3
2010-08-10 12:01:33 51°22.662 3°11.736 303.3 3.4 70 17
2010-08-10 12:02:33 51°22.68 3°11.823 310 3.6 70 17.1
2010-08-10 12:03:33 51°22.698 3°11.915 318.6 3.6 72 16.8
2010-08-10 12:04:34 51°22.749 3°11.988 6.7 6.3 36 16.4
2010-08-10 12:05:33 51°22.909 3°12.179 30.1 14.6 37 15.2
2010-08-10 12:06:33 51°23.109 3°12.422 31.2 15.2 35 14.3
2010-08-10 12:07:33 51°23.312 3°12.665 31.3 15.2 38 14.3
2010-08-10 12:08:33 51°23.512 3°12.913 31.7 15 40 13.6
2010-08-10 12:09:34 51°23.713 3°13.163 31.4 15.2 36 13.6
2010-08-10 12:10:33 51°23.91 3°13.404 34.7 15.2 40 14.1
2010-08-10 12:11:34 51°24.056 3°13.739 60.1 14.6 65 15
2010-08-10 12:12:33 51°24.088 3°13.994 108.4 7.5 99 15.5
2010-08-10 12:13:33 51°24.05 3°14.135 163.5 4.4 119 14.2
2010-08-10 12:14:33 51°24.015 3°14.223 177 3.7 121 13.7
2010-08-10 12:15:33 51°23.992 3°14.306 175 3.3 105 14.3
2010-08-10 12:16:33 51°23.984 3°14.392 170.9 3.2 95 14.5
2010-08-10 12:17:33 51°23.982 3°14.475 169.5 3 92 14.3
2010-08-10 12:18:33 51°23.983 3°14.556 175 2.9 92 14.4
2010-08-10 12:19:33 51°23.93 3°14.617 195.3 5 165 14.1
2010-08-10 12:20:34 51°23.87 3°14.652 208.4 3 160 14.7
2010-08-10 12:21:33 51°23.82 3°14.667 211 3.7 169 13.6
2010-08-10 12:22:34 51°23.751 3°14.703 196.1 4.6 158 13.4
2010-08-10 12:23:33 51°23.682 3°14.759 188.8 4.5 156 14.1
2010-08-10 12:24:33 51°23.618 3°14.763 227.3 3.5 201 13.5
2010-08-10 12:25:33 51°23.567 3°14.714 239.6 3.5 221 12.9
2010-08-10 12:26:33 51°23.532 3°14.656 249.7 2.4 235 12.9
2010-08-10 12:27:33 51°23.524 3°14.603 265.7 2 270 12.7
2010-08-10 12:28:33 51°23.52 3°14.552 259.9 2 256 13
2010-08-10 12:29:33 51°23.509 3°14.502 254.7 2.1 244 13.1
2010-08-10 12:30:33 51°23.49 3°14.453 249.1 2.3 233 12.8
2010-08-10 12:31:33 51°23.461 3°14.406 242.1 2.6 220 13
2010-08-10 12:32:33 51°23.43 3°14.362 250.5 2.3 240 12.9
2010-08-10 12:33:34 51°23.42 3°14.305 258.9 2.3 259 13.4
2010-08-10 12:34:33 51°23.415 3°14.244 262.2 2.3 264 12.7
2010-08-10 12:35:33 51°23.411 3°14.182 262.3 2.3 265 12.9
2010-08-10 12:36:33 51°23.409 3°14.122 262.8 2.3 268 12.9
2010-08-10 12:37:33 51°23.407 3°14.06 262.4 2.4 268 13.2
2010-08-10 12:38:34 51°23.406 3°13.995 262.5 2.5 267 12.9
2010-08-10 12:39:33 51°23.404 3°13.932 262.7 2.4 268 13.1
2010-08-10 12:40:33 51°23.401 3°13.867 262.1 2.4 267 13.3
2010-08-10 12:41:33 51°23.401 3°13.802 262.9 2.5 269 13.3
2010-08-10 12:42:33 51°23.399 3°13.736 262.4 2.5 269 13.4
2010-08-10 12:43:33 51°23.397 3°13.67 261.8 2.5 266 13.4
2010-08-10 12:44:33 51°23.395 3°13.604 262 2.5 268 13.7
2010-08-10 12:49:12 51°23.36 3°13.283 256.6 2.7 258 14.2
2010-08-10 12:50:24 51°23.35 3°13.202 257.6 2.6 260 13.9
2010-08-10 12:51:24 51°23.341 3°13.134 252.8 2.5 250 13.7
2010-08-10 12:52:24 51°23.307 3°13.098 213.6 3 183 14.2
2010-08-10 12:53:23 51°23.249 3°13.107 206.9 3.4 180 14.6
2010-08-10 12:54:24 51°23.19 3°13.118 197.3 3.8 166 14.7
2010-08-10 12:55:24 51°23.132 3°13.157 188.5 3.5 152 14.4
2010-08-10 12:56:24 51°23.086 3°13.202 188.9 3.1 144 13.5
2010-08-10 12:57:24 51°23.045 3°13.245 197.1 2.7 150 13.7
2010-08-10 12:58:24 51°23.008 3°13.275 207 2.4 155 13.6
2010-08-10 12:59:24 51°22.978 3°13.296 220.1 1.5 149 13.6
2010-08-10 13:00:24 51°22.965 3°13.32 230.3 1.1 109 13.6
2010-08-10 13:01:23 51°22.936 3°13.305 229.9 4.4 217 13.4
2010-08-10 13:02:24 51°22.858 3°13.24 211.3 4 186 13.7
2010-08-10 13:03:24 51°22.807 3°13.272 185.8 3 140 13.8
2010-08-10 13:04:24 51°22.78 3°13.329 180.4 2.6 119 13.6
2010-08-10 13:05:24 51°22.766 3°13.392 177.2 2.4 104 13.6
2010-08-10 13:06:24 51°22.761 3°13.454 173.6 2.4 96 13.8
2010-08-10 13:07:24 51°22.709 3°13.515 180.1 7.3 165 13.8
2010-08-10 13:08:24 51°22.599 3°13.499 215.5 4 196 13.9
2010-08-10 13:09:23 51°22.56 3°13.491 225.7 1.5 169 14.1
2010-08-10 13:10:24 51°22.544 3°13.51 226.3 1.2 121 13.9
2010-08-10 13:11:24 51°22.538 3°13.546 220.9 1.6 98 13.9
2010-08-10 13:12:24 51°22.519 3°13.544 247.1 3.4 246 13.9
2010-08-10 13:13:24 51°22.498 3°13.372 259.4 8.9 259 14.3
2010-08-10 13:14:24 51°22.466 3°13.104 259.9 11 259 15.2
2010-08-10 13:15:24 51°22.437 3°12.858 258.9 7 259 15.9
2010-08-10 13:16:24 51°22.424 3°12.729 259.7 3.9 263 16.3
2010-08-10 13:17:24 51°22.417 3°12.622 260.2 5.1 263 16.7
2010-08-10 13:18:24 51°22.406 3°12.493 260.7 4.8 264 16.9
2010-08-10 13:19:23 51°22.398 3°12.371 260.7 4.9 265 17.3
2010-08-10 13:20:24 51°22.386 3°12.22 259.9 6.7 262 17.7
2010-08-10 13:21:23 51°22.37 3°12.027 260.4 7.9 263 17.9
2010-08-10 13:22:23 51°22.351 3°11.805 257.3 9.4 257 18.3
2010-08-10 13:23:24 51°22.308 3°11.53 256.7 10.9 259 18.5
2010-08-10 13:24:24 51°22.277 3°11.242 257.5 11 261 18.7
2010-08-10 13:25:23 51°22.245 3°10.958 257.4 11.1 261 19.4
2010-08-10 13:26:23 51°22.213 3°10.665 257.4 11.3 259 21.3
2010-08-10 13:27:23 51°22.18 3°10.369 257 11.2 260 17.1
2010-08-10 13:28:24 51°22.154 3°10.069 260.7 11.3 263 16.4
2010-08-10 13:29:23 51°22.131 3°9.776 259.9 11.3 263 15.6
2010-08-10 13:30:23 51°22.108 3°9.476 260.2 11.4 263 15.4
2010-08-10 13:31:23 51°22.086 3°9.175 260.8 11.4 265 14.8
2010-08-10 13:32:23 51°22.062 3°8.872 260.1 11.5 263 14.3
2010-08-10 13:33:24 51°22.038 3°8.563 260.1 11.5 264 14.1
2010-08-10 13:34:23 51°22.014 3°8.266 260 11.5 263 14.2
2010-08-10 13:35:24 51°21.993 3°7.961 260 11.4 262 14.1
2010-08-10 13:36:23 51°21.962 3°7.669 256.5 11.3 259 14
2010-08-10 13:37:24 51°21.92 3°7.372 253.4 11.3 255 14.1
2010-08-10 13:38:24 51°21.866 3°7.085 252.3 11.4 254 13.9
2010-08-10 13:39:24 51°21.806 3°6.797 248.4 11.3 250 13.5
2010-08-10 13:40:23 51°21.745 3°6.518 249 11.3 251 13.3
2010-08-10 13:41:24 51°21.682 3°6.228 249.4 11.3 251 13.3
2010-08-10 13:42:24 51°21.619 3°5.945 249 11.3 251 13
2010-08-10 13:43:24 51°21.557 3°5.664 249.6 11 251 12.8
2010-08-10 13:44:23 51°21.501 3°5.389 248.7 11.1 251 12.8
2010-08-10 13:45:24 51°21.441 3°5.103 249.2 11.1 252 12.9
2010-08-10 13:46:24 51°21.374 3°4.825 245.6 11.3 247 13
2010-08-10 13:47:24 51°21.297 3°4.551 246.1 11.4 247 12.8
2010-08-10 13:48:24 51°21.225 3°4.273 246.2 11.3 248 12.8
2010-08-10 13:49:24 51°21.151 3°3.994 246.1 11.4 247 12.5
2010-08-10 13:50:24 51°21.079 3°3.711 246.3 11.6 248 12.5
2010-08-10 13:51:33 51°20.997 3°3.385 246.3 11.5 248 12.1
2010-08-10 13:52:33 51°20.925 3°3.101 246.2 11.6 248 11.9
2010-08-10 13:53:53 51°20.83 3°2.721 246.2 11.6 248 12.1
2010-08-10 13:54:53 51°20.759 3°2.436 246.4 11.5 249 12.1
2010-08-10 13:55:53 51°20.689 3°2.151 246.3 11.5 249 12.1
2010-08-10 13:56:53 51°20.619 3°1.864 245.7 11.6 249 11.9
2010-08-10 13:57:53 51°20.547 3°1.575 245.8 11.7 248 11.8
2010-08-10 13:58:53 51°20.473 3°1.286 246.6 11.6 248 11.9
2010-08-10 13:59:53 51°20.401 3°0.998 246 11.8 248 11.6
2010-08-10 14:00:53 51°20.331 3°0.709 246.6 11.6 249 11.7
2010-08-10 14:01:53 51°20.261 3°0.423 245.9 11.5 249 11.8
2010-08-10 14:02:53 51°20.193 3°0.137 246.3 11.4 249 11.6
2010-08-10 14:03:53 51°20.124 2°59.853 246.4 11.5 249 11.8
2010-08-10 14:04:53 51°20.057 2°59.566 246.2 11.5 249 12.1
2010-08-10 14:05:53 51°19.988 2°59.282 246.5 11.5 250 11.9
2010-08-10 14:06:53 51°19.92 2°58.999 246.3 11.5 250 12.1
2010-08-10 14:07:53 51°19.853 2°58.715 246.3 11.4 249 12
2010-08-10 14:08:53 51°19.785 2°58.432 246 11.5 248 12.2
2010-08-10 14:09:53 51°19.719 2°58.144 246.7 11.5 250 12.1
2010-08-10 14:10:53 51°19.652 2°57.859 246.4 11.5 250 12.5
2010-08-10 14:11:53 51°19.584 2°57.575 246.1 11.5 250 12.5
2010-08-10 14:12:53 51°19.516 2°57.288 246.6 11.5 249 12.7
2010-08-10 14:13:53 51°19.449 2°57.006 246.7 11.3 250 12.3
2010-08-10 14:14:53 51°19.381 2°56.722 246.1 11.6 249 12.9
2010-08-10 14:15:53 51°19.313 2°56.432 246.2 11.7 249 12.6
2010-08-10 14:16:53 51°19.244 2°56.141 246.6 11.7 250 12.8
2010-08-10 14:17:53 51°19.174 2°55.851 246.5 11.7 250 13.1
2010-08-10 14:18:53 51°19.104 2°55.559 246.7 11.8 250 12.7
2010-08-10 14:19:53 51°19.036 2°55.265 246 11.7 249 13
2010-08-10 14:20:53 51°18.965 2°54.971 246.1 11.8 250 13
2010-08-10 14:21:53 51°18.899 2°54.677 246.5 11.8 251 13.3
2010-08-10 14:22:53 51°18.832 2°54.386 245.4 11.7 248 13.2
2010-08-10 14:23:53 51°18.765 2°54.093 246.2 11.8 249 13.2
2010-08-10 14:24:53 51°18.694 2°53.8 244.7 11.8 247 13
2010-08-10 14:25:53 51°18.61 2°53.519 241 11.6 244 13
2010-08-10 14:26:53 51°18.523 2°53.246 238.1 11.6 240 13.3
2010-08-10 14:27:53 51°18.421 2°52.986 233.4 11.5 234 13.2
2010-08-10 14:28:53 51°18.295 2°52.757 223.7 11.6 222 12.7
2010-08-10 14:29:53 51°18.136 2°52.585 207.2 11.5 205 12.5
2010-08-10 14:30:53 51°17.953 2°52.492 191.4 11.7 189 12.4
2010-08-10 14:31:52 51°17.76 2°52.475 183 11.8 182 12
2010-08-10 14:32:53 51°17.562 2°52.474 179.2 11.7 179 12
2010-08-10 14:33:53 51°17.366 2°52.504 175.2 11.9 173 11.9
2010-08-10 14:34:53 51°17.173 2°52.566 169.8 11.9 164 11.5
2010-08-10 14:35:53 51°16.981 2°52.653 166 12 162 11.8
2010-08-10 14:36:53 51°16.797 2°52.783 158.2 12.2 154 11.4
2010-08-10 14:37:53 51°16.617 2°52.935 158.1 12.4 149 13
2010-08-10 14:38:53 51°16.431 2°53.066 160.5 12.3 158 13.6
2010-08-10 14:39:53 51°16.242 2°53.189 161.2 12.4 158 13.4
2010-08-10 14:40:53 51°16.052 2°53.313 162.7 12.3 156 13.4
2010-08-10 14:41:53 51°15.867 2°53.453 155.6 12.4 152 13.3
2010-08-10 14:42:53 51°15.689 2°53.624 147.4 12.5 144 13.1
2010-08-10 14:43:53 51°15.528 2°53.837 143.1 12.4 142 12.7
2010-08-10 14:44:53 51°15.366 2°54.047 145.2 12.7 145 12.3
2010-08-10 14:45:53 51°15.195 2°54.247 146.8 12.6 141 12
2010-08-10 14:46:53 51°15.03 2°54.455 145.1 12.7 138 11.7
2010-08-10 14:47:53 51°14.863 2°54.659 146.7 12.7 140 12.8
2010-08-10 14:48:53 51°14.69 2°54.837 150.6 12.4 147 12.7
2010-08-10 14:49:52 51°14.516 2°55.007 147.5 12.4 149 12.7
2010-08-10 14:50:53 51°14.357 2°55.183 143.6 10.7 144 11.6
2010-08-10 14:51:53 51°14.22 2°55.329 148.1 9.2 150 12.6
2010-08-10 14:52:53 51°14.094 2°55.437 152.3 8.6 152 12.1
2010-08-10 14:57:13 51°13.707 2°55.809 117.7 4.4 118 -999
2010-08-10 14:58:13 51°13.673 2°55.918 114.5 4 115 -999
2010-08-10 14:59:13 51°13.662 2°55.959 124.2 0.2 67 -999